createdAt,value
2022-12-11T00:01:34.474Z,100.30
2022-12-11T00:04:03.032Z,99.97
2022-12-11T00:06:31.686Z,104.53
2022-12-11T00:09:02.133Z,102.83
2022-12-11T00:11:31.375Z,102.63
2022-12-11T00:13:59.657Z,97.90
2022-12-11T00:16:28.494Z,100.13
2022-12-11T00:18:57.199Z,93.93
2022-12-11T00:21:25.992Z,92.33
2022-12-11T00:23:54.373Z,106.20
2022-12-11T00:26:24.154Z,103.90
2022-12-11T00:28:55.575Z,97.33
2022-12-11T00:31:25.084Z,103.07
2022-12-11T00:33:53.782Z,98.00
2022-12-11T00:36:24.894Z,120.33
2022-12-11T00:38:54.248Z,118.13
2022-12-11T00:41:24.316Z,115.47
2022-12-11T00:43:52.610Z,110.13
2022-12-11T00:46:21.983Z,114.07
2022-12-11T00:48:50.936Z,116.73
2022-12-11T00:51:19.554Z,110.17
2022-12-11T00:53:48.060Z,117.57
2022-12-11T00:56:18.872Z,120.83
2022-12-11T00:58:49.616Z,126.40
2022-12-11T01:01:20.730Z,124.37
2022-12-11T01:03:49.421Z,122.83
2022-12-11T01:06:19.937Z,121.33
2022-12-11T01:09:09.395Z,126.13
2022-12-11T01:11:37.357Z,117.93
2022-12-11T01:14:07.278Z,130.27
2022-12-11T01:16:35.617Z,121.20
2022-12-11T01:19:04.564Z,118.03
2022-12-11T01:21:32.960Z,111.80
2022-12-11T01:24:01.344Z,111.70
2022-12-11T01:26:30.703Z,108.03
2022-12-11T01:28:59.048Z,107.97
2022-12-11T01:31:28.808Z,123.43
2022-12-11T01:33:57.526Z,115.40
2022-12-11T01:36:26.136Z,108.50
2022-12-11T01:38:54.510Z,110.73
2022-12-11T01:41:23.249Z,112.47
2022-12-11T01:44:03.251Z,107.27
2022-12-11T01:46:34.495Z,111.43
2022-12-11T01:49:05.572Z,99.83
2022-12-11T01:51:37.194Z,113.53
2022-12-11T01:54:08.816Z,113.33
2022-12-11T01:56:39.066Z,104.97
2022-12-11T01:59:10.091Z,105.50
2022-12-11T02:01:42.415Z,114.07
2022-12-11T02:04:12.343Z,118.00
2022-12-11T02:06:42.717Z,112.27
2022-12-11T02:09:13.926Z,118.77
2022-12-11T02:11:51.352Z,112.50
2022-12-11T02:14:27.954Z,112.20
2022-12-11T02:17:02.035Z,108.87
2022-12-11T02:19:50.273Z,97.80
2022-12-11T02:22:51.930Z,99.53
2022-12-11T02:25:26.967Z,97.30
2022-12-11T02:28:07.993Z,92.23
2022-12-11T02:30:41.103Z,96.10
2022-12-11T02:33:12.644Z,88.87
2022-12-11T02:35:43.252Z,87.37
2022-12-11T02:38:15.813Z,91.93
2022-12-11T02:40:45.728Z,81.03
2022-12-11T02:43:18.415Z,86.83
2022-12-11T02:45:48.017Z,82.80
2022-12-11T02:48:18.290Z,83.90
2022-12-11T02:50:48.955Z,78.37
2022-12-11T02:53:21.158Z,81.43
2022-12-11T02:55:53.594Z,77.53
2022-12-11T02:58:27.870Z,79.53
2022-12-11T03:00:56.568Z,82.07
2022-12-11T03:03:24.991Z,81.47
2022-12-11T03:05:53.391Z,84.00
2022-12-11T03:08:21.918Z,78.63
2022-12-11T03:10:50.391Z,75.73
2022-12-11T03:13:21.952Z,77.77
2022-12-11T03:16:07.303Z,76.30
2022-12-11T03:18:41.309Z,73.63
2022-12-11T03:21:16.240Z,65.63
2022-12-11T03:23:51.337Z,71.13
2022-12-11T03:26:21.671Z,68.90
2022-12-11T03:28:55.558Z,70.33
2022-12-11T03:31:29.471Z,68.50
2022-12-11T03:34:02.883Z,64.93
2022-12-11T03:36:34.761Z,63.90
2022-12-11T03:39:09.016Z,65.80
2022-12-11T03:41:40.348Z,64.20
2022-12-11T03:44:09.855Z,70.00
2022-12-11T03:46:42.097Z,65.77
2022-12-11T03:49:16.370Z,66.77
2022-12-11T03:51:47.895Z,67.13
2022-12-11T03:54:18.059Z,66.37
2022-12-11T03:56:47.790Z,70.07
2022-12-11T03:59:16.654Z,64.23
2022-12-11T04:01:46.700Z,73.53
2022-12-11T04:04:15.333Z,70.73
2022-12-11T04:06:43.727Z,71.17
2022-12-11T04:09:12.219Z,79.13
2022-12-11T04:11:42.765Z,86.63
2022-12-11T04:14:30.339Z,81.90
2022-12-11T04:17:01.821Z,80.90
2022-12-11T04:19:47.322Z,87.40
2022-12-11T04:22:35.380Z,83.07
2022-12-11T04:25:05.816Z,81.07
2022-12-11T04:27:53.084Z,78.03
2022-12-11T04:30:26.018Z,79.20
2022-12-11T04:32:57.842Z,77.40
2022-12-11T04:35:26.110Z,78.87
2022-12-11T04:37:54.521Z,78.63
2022-12-11T04:40:23.282Z,72.93
2022-12-11T04:42:51.821Z,71.13
2022-12-11T04:45:20.140Z,73.40
2022-12-11T04:47:48.392Z,67.67
2022-12-11T04:50:18.058Z,71.57
2022-12-11T04:52:46.574Z,70.77
2022-12-11T04:55:14.974Z,70.07
2022-12-11T04:57:43.187Z,67.10
2022-12-11T05:00:13.802Z,64.50
2022-12-11T05:02:43.665Z,73.17
2022-12-11T05:05:12.932Z,67.50
2022-12-11T05:07:43.044Z,74.17
2022-12-11T05:10:11.665Z,74.90
2022-12-11T05:12:40.137Z,70.97
2022-12-11T05:15:09.831Z,66.80
2022-12-11T05:17:38.336Z,66.33
2022-12-11T05:20:07.569Z,67.77
2022-12-11T05:22:36.175Z,69.30
2022-12-11T05:25:07.046Z,70.27
2022-12-11T05:27:35.405Z,66.17
2022-12-11T05:30:03.787Z,63.53
2022-12-11T05:32:32.138Z,66.73
2022-12-11T05:35:00.482Z,64.23
2022-12-11T05:37:28.796Z,65.47
2022-12-11T05:39:57.064Z,66.43
2022-12-11T05:42:28.970Z,68.50
2022-12-11T05:44:57.576Z,67.47
2022-12-11T05:47:25.820Z,66.53
2022-12-11T05:49:54.059Z,69.53
2022-12-11T05:52:22.711Z,73.93
2022-12-11T05:54:51.899Z,71.63
2022-12-11T05:57:20.469Z,71.27
2022-12-11T05:59:50.050Z,71.70
2022-12-11T06:02:18.403Z,71.67
2022-12-11T06:04:47.039Z,70.93
2022-12-11T06:07:15.411Z,76.03
2022-12-11T06:09:43.860Z,78.50
2022-12-11T06:12:12.346Z,93.60
2022-12-11T06:14:40.978Z,74.57
2022-12-11T06:17:10.987Z,71.47
2022-12-11T06:19:39.575Z,65.07
2022-12-11T06:22:07.932Z,75.83
2022-12-11T06:24:36.155Z,72.13
2022-12-11T06:27:04.813Z,66.67
2022-12-11T06:29:33.350Z,66.97
2022-12-11T06:32:01.772Z,68.73
2022-12-11T06:34:31.462Z,69.90
2022-12-11T06:36:59.820Z,72.47
2022-12-11T06:39:28.168Z,70.93
2022-12-11T06:41:56.414Z,79.57
2022-12-11T06:44:24.969Z,74.90
2022-12-11T06:46:53.203Z,70.40
2022-12-11T06:49:21.756Z,69.23
2022-12-11T06:51:51.522Z,74.43
2022-12-11T06:54:19.903Z,72.00
2022-12-11T06:56:48.544Z,73.03
2022-12-11T06:59:16.802Z,69.90
2022-12-11T07:01:45.167Z,76.10
2022-12-11T07:04:13.495Z,71.83
2022-12-11T07:06:42.110Z,67.60
2022-12-11T07:09:11.906Z,66.97
2022-12-11T07:11:40.201Z,59.30
2022-12-11T07:14:08.897Z,64.20
2022-12-11T07:16:37.413Z,72.27
2022-12-11T07:19:06.125Z,75.63
2022-12-11T07:21:34.553Z,77.30
2022-12-11T07:24:03.051Z,81.73
2022-12-11T07:26:33.173Z,68.33
2022-12-11T07:29:02.270Z,75.67
2022-12-11T07:31:31.798Z,74.53
2022-12-11T07:34:02.358Z,79.20
2022-12-11T07:36:31.259Z,69.00
2022-12-11T07:39:00.679Z,77.37
2022-12-11T07:41:29.351Z,86.47
2022-12-11T07:44:01.314Z,77.03
2022-12-11T07:46:31.627Z,74.73
2022-12-11T07:49:00.843Z,67.20
2022-12-11T07:51:31.278Z,68.40
2022-12-11T07:54:01.427Z,69.53
2022-12-11T07:56:31.194Z,78.93
2022-12-11T07:59:02.326Z,71.80
2022-12-11T08:01:32.765Z,65.97
2022-12-11T08:04:01.064Z,67.70
2022-12-11T08:06:32.549Z,65.40
2022-12-11T08:09:02.447Z,67.73
2022-12-11T08:11:31.001Z,67.07
2022-12-11T08:14:01.446Z,70.30
2022-12-11T08:16:30.190Z,67.43
2022-12-11T08:18:59.976Z,64.40
2022-12-11T08:21:29.705Z,63.90
2022-12-11T08:23:58.233Z,67.13
2022-12-11T08:26:27.915Z,58.70
2022-12-11T08:28:56.937Z,63.63
2022-12-11T08:31:27.052Z,66.30
2022-12-11T08:33:56.952Z,58.93
2022-12-11T08:36:26.338Z,59.53
2022-12-11T08:38:56.241Z,51.53
2022-12-11T08:41:26.613Z,52.73
2022-12-11T08:43:56.138Z,54.00
2022-12-11T08:46:28.017Z,58.10
2022-12-11T08:48:57.835Z,53.90
2022-12-11T08:51:28.540Z,50.47
2022-12-11T08:53:58.547Z,52.30
2022-12-11T08:56:27.653Z,50.53
2022-12-11T08:58:56.282Z,44.93
2022-12-11T09:01:27.856Z,43.50
2022-12-11T09:03:57.577Z,41.93
2022-12-11T09:06:27.800Z,38.13
2022-12-11T09:08:57.181Z,41.97
2022-12-11T09:11:27.380Z,37.67
2022-12-11T09:13:56.223Z,40.27
2022-12-11T09:16:26.304Z,37.00
2022-12-11T09:18:57.926Z,36.27
2022-12-11T09:21:27.905Z,35.00
2022-12-11T09:23:57.680Z,35.03
2022-12-11T09:26:27.417Z,36.57
2022-12-11T09:28:55.809Z,33.67
2022-12-11T09:31:26.924Z,38.13
2022-12-11T09:33:58.647Z,36.50
2022-12-11T09:36:27.871Z,40.07
2022-12-11T09:38:56.275Z,36.70
2022-12-11T09:41:36.062Z,37.33
2022-12-11T09:44:20.818Z,37.33
2022-12-11T09:46:50.036Z,38.87
2022-12-11T09:49:27.017Z,38.17
2022-12-11T09:52:08.475Z,41.63
2022-12-11T09:54:38.316Z,38.87
2022-12-11T09:57:20.075Z,38.70
2022-12-11T10:00:05.661Z,35.67
2022-12-11T10:02:45.901Z,41.93
2022-12-11T10:05:25.658Z,39.57
2022-12-11T10:08:01.675Z,37.77
2022-12-11T10:10:40.780Z,37.90
2022-12-11T10:13:17.942Z,43.27
2022-12-11T10:15:53.029Z,40.07
2022-12-11T10:18:25.194Z,44.97
2022-12-11T10:20:56.726Z,52.80
2022-12-11T10:23:35.707Z,53.63
2022-12-11T10:26:08.112Z,39.50
2022-12-11T10:28:37.335Z,36.93
2022-12-11T10:31:15.421Z,35.13
2022-12-11T10:33:56.009Z,37.33
2022-12-11T10:36:30.977Z,36.43
2022-12-11T10:39:00.229Z,36.63
2022-12-11T10:41:39.266Z,36.27
2022-12-11T10:44:18.988Z,39.23
2022-12-11T10:46:48.743Z,39.63
2022-12-11T10:49:25.605Z,41.10
2022-12-11T10:51:57.132Z,39.03
2022-12-11T10:54:34.999Z,37.30
2022-12-11T10:57:04.737Z,36.93
2022-12-11T10:59:39.255Z,38.93
2022-12-11T11:02:16.777Z,37.23
2022-12-11T11:04:46.015Z,34.43
2022-12-11T11:07:20.659Z,36.50
2022-12-11T11:09:49.713Z,54.60
2022-12-11T11:12:23.502Z,36.87
2022-12-11T11:15:02.573Z,38.40
2022-12-11T11:17:35.100Z,39.00
2022-12-11T11:20:14.000Z,38.37
2022-12-11T11:22:47.026Z,40.50
2022-12-11T11:25:20.953Z,40.00
2022-12-11T11:27:55.893Z,39.67
2022-12-11T11:30:26.786Z,42.83
2022-12-11T11:32:57.982Z,41.00
2022-12-11T11:35:28.756Z,43.57
2022-12-11T11:38:04.840Z,40.00
2022-12-11T11:40:39.471Z,37.83
2022-12-11T11:43:16.788Z,42.67
2022-12-11T11:45:53.162Z,38.03
2022-12-11T11:48:32.282Z,39.83
2022-12-11T11:51:04.744Z,42.60
2022-12-11T11:53:40.598Z,42.23
2022-12-11T11:56:21.324Z,41.53
2022-12-11T11:58:59.285Z,39.20
2022-12-11T12:01:28.137Z,43.00
2022-12-11T12:03:57.468Z,41.57
2022-12-11T12:06:35.485Z,36.90
2022-12-11T12:09:19.094Z,35.33
2022-12-11T12:11:54.291Z,34.20
2022-12-11T12:14:51.654Z,38.63
2022-12-11T12:17:25.810Z,36.03
2022-12-11T12:20:05.325Z,35.87
2022-12-11T12:23:01.665Z,41.97
2022-12-11T12:25:38.862Z,36.10
2022-12-11T12:28:18.433Z,37.87
2022-12-11T12:30:58.163Z,37.53
2022-12-11T12:33:38.313Z,44.43
2022-12-11T12:36:17.624Z,39.17
2022-12-11T12:38:54.816Z,40.17
2022-12-11T12:41:31.232Z,38.90
2022-12-11T12:44:14.923Z,35.77
2022-12-11T12:46:57.134Z,34.10
2022-12-11T12:49:36.456Z,34.70
2022-12-11T12:52:07.718Z,34.40
2022-12-11T12:54:37.273Z,34.93
2022-12-11T12:57:07.123Z,34.97
2022-12-11T12:59:35.302Z,37.13
2022-12-11T13:02:05.084Z,39.70
2022-12-11T13:04:58.219Z,37.77
2022-12-11T13:07:30.769Z,37.60
2022-12-11T13:10:07.298Z,36.77
2022-12-11T13:12:43.515Z,35.37
2022-12-11T13:15:36.704Z,36.83
2022-12-11T13:18:27.157Z,38.90
2022-12-11T13:20:55.726Z,39.60
2022-12-11T13:23:29.782Z,39.03
2022-12-11T13:25:59.965Z,36.97
2022-12-11T13:28:33.508Z,33.37
2022-12-11T13:31:08.427Z,36.77
2022-12-11T13:33:44.083Z,36.57
2022-12-11T13:36:32.157Z,31.03
2022-12-11T13:39:03.703Z,33.37
2022-12-11T13:41:36.274Z,36.67
2022-12-11T13:44:07.553Z,37.33
2022-12-11T13:46:39.921Z,39.90
2022-12-11T13:49:18.076Z,37.60
2022-12-11T13:51:53.764Z,38.57
2022-12-11T13:54:22.046Z,34.27
2022-12-11T13:57:16.763Z,34.93
2022-12-11T13:59:50.116Z,35.83
2022-12-11T14:02:23.709Z,36.83
2022-12-11T14:04:55.179Z,33.37
2022-12-11T14:07:27.514Z,36.47
2022-12-11T14:10:00.216Z,39.00
2022-12-11T14:12:30.041Z,38.47
2022-12-11T14:15:03.066Z,40.70
2022-12-11T14:17:34.996Z,41.60
2022-12-11T14:20:07.698Z,42.20
2022-12-11T14:22:36.711Z,38.97
2022-12-11T14:25:21.766Z,42.33
2022-12-11T14:27:51.834Z,44.73
2022-12-11T14:30:26.367Z,44.73
2022-12-11T14:32:58.178Z,40.63
2022-12-11T14:35:34.148Z,43.90
2022-12-11T14:38:17.803Z,42.37
2022-12-11T14:40:50.981Z,46.63
2022-12-11T14:43:25.613Z,44.43
2022-12-11T14:46:00.350Z,44.33
2022-12-11T14:48:33.066Z,39.13
2022-12-11T14:51:07.060Z,45.13
2022-12-11T14:53:38.996Z,41.43
2022-12-11T14:56:10.466Z,41.10
2022-12-11T14:58:44.493Z,40.20
2022-12-11T15:01:27.229Z,40.90
2022-12-11T15:04:05.266Z,46.20
2022-12-11T15:06:35.248Z,48.50
2022-12-11T15:09:25.870Z,47.10
2022-12-11T15:11:57.466Z,45.77
2022-12-11T15:14:26.724Z,47.23
2022-12-11T15:16:58.831Z,47.57
2022-12-11T15:19:31.092Z,48.13
2022-12-11T15:22:04.057Z,46.57
2022-12-11T15:24:38.571Z,48.07
2022-12-11T15:27:07.499Z,43.27
2022-12-11T15:29:37.731Z,44.13
2022-12-11T15:32:19.482Z,48.47
2022-12-11T15:34:49.978Z,51.67
2022-12-11T15:37:24.055Z,47.90
2022-12-11T15:39:52.904Z,64.33
2022-12-11T15:42:27.329Z,83.93
2022-12-11T15:44:56.819Z,104.37
2022-12-11T15:47:28.641Z,44.73
2022-12-11T15:49:59.029Z,44.23
2022-12-11T15:52:27.344Z,44.97
2022-12-11T15:54:55.679Z,41.97
2022-12-11T15:57:25.789Z,46.67
2022-12-11T15:59:55.998Z,48.63
2022-12-11T16:02:26.892Z,49.53
2022-12-11T16:04:58.707Z,49.23
2022-12-11T16:07:27.989Z,46.80
2022-12-11T16:09:56.184Z,43.67
2022-12-11T16:12:24.732Z,46.33
2022-12-11T16:14:53.069Z,43.63
2022-12-11T16:17:21.389Z,44.03
2022-12-11T16:19:49.777Z,47.87
2022-12-11T16:22:19.512Z,45.23
2022-12-11T16:24:47.927Z,48.37
2022-12-11T16:27:21.400Z,44.10
2022-12-11T16:29:52.062Z,48.40
2022-12-11T16:32:21.342Z,48.77
2022-12-11T16:34:49.870Z,47.87
2022-12-11T16:37:19.703Z,50.13
2022-12-11T16:39:48.479Z,47.93
2022-12-11T16:42:16.905Z,52.70
2022-12-11T16:44:45.162Z,53.20
2022-12-11T16:47:13.939Z,52.27
2022-12-11T16:49:43.321Z,54.87
2022-12-11T16:52:11.693Z,59.83
2022-12-11T16:54:41.589Z,56.43
2022-12-11T16:57:10.028Z,57.40
2022-12-11T16:59:38.766Z,60.93
2022-12-11T17:02:07.574Z,63.87
2022-12-11T17:04:35.854Z,72.37
2022-12-11T17:07:05.059Z,72.87
2022-12-11T17:09:33.989Z,69.33
2022-12-11T17:12:04.523Z,76.53
2022-12-11T17:14:33.153Z,73.40
2022-12-11T17:17:01.945Z,77.53
2022-12-11T17:19:30.747Z,72.73
2022-12-11T17:21:59.021Z,82.23
2022-12-11T17:24:28.352Z,80.60
2022-12-11T17:26:57.171Z,78.47
2022-12-11T17:29:26.903Z,84.57
2022-12-11T17:31:56.283Z,90.00
2022-12-11T17:34:24.516Z,88.27
2022-12-11T17:36:52.765Z,99.60
2022-12-11T17:39:21.657Z,97.27
2022-12-11T17:41:50.104Z,100.37
2022-12-11T17:44:18.682Z,112.30
2022-12-11T17:46:48.316Z,112.60
2022-12-11T17:49:17.433Z,103.33
2022-12-11T17:51:45.831Z,93.20
2022-12-11T17:54:14.354Z,106.50
2022-12-11T17:56:43.442Z,91.50
2022-12-11T17:59:11.869Z,80.60
2022-12-11T18:01:40.504Z,81.60
2022-12-11T18:04:12.145Z,86.60
2022-12-11T18:06:40.707Z,84.47
2022-12-11T18:09:10.274Z,85.77
2022-12-11T18:11:38.890Z,103.70
2022-12-11T18:14:11.108Z,94.70
2022-12-11T18:16:43.296Z,89.73
2022-12-11T18:19:13.053Z,87.23
2022-12-11T18:21:44.184Z,84.97
2022-12-11T18:24:12.910Z,82.07
2022-12-11T18:26:42.677Z,82.00
2022-12-11T18:29:11.274Z,79.47
2022-12-11T18:31:42.579Z,87.90
2022-12-11T18:34:13.609Z,78.27
2022-12-11T18:36:42.170Z,82.82
2022-12-11T18:39:11.366Z,77.57
2022-12-11T18:41:40.726Z,80.60
2022-12-11T18:44:10.141Z,76.57
2022-12-11T18:46:39.725Z,80.25
2022-12-11T18:49:08.507Z,79.33
2022-12-11T18:51:38.280Z,75.17
2022-12-11T18:54:06.848Z,68.70
2022-12-11T18:56:35.224Z,71.20
2022-12-11T18:59:03.606Z,71.87
2022-12-11T19:01:33.549Z,73.17
2022-12-11T19:04:07.740Z,74.13
2022-12-11T19:06:40.481Z,70.23
2022-12-11T19:09:10.363Z,78.67
2022-12-11T19:11:41.175Z,76.83
2022-12-11T19:14:10.118Z,79.10
2022-12-11T19:16:41.362Z,80.10
2022-12-11T19:19:13.289Z,80.93
2022-12-11T19:21:43.982Z,75.87
2022-12-11T19:24:16.272Z,66.03
2022-12-11T19:26:45.317Z,75.77
2022-12-11T19:29:20.095Z,69.80
2022-12-11T19:31:49.332Z,78.87
2022-12-11T19:34:18.044Z,74.90
2022-12-11T19:36:48.474Z,73.77
2022-12-11T19:39:17.011Z,69.63
2022-12-11T19:41:45.675Z,69.60
2022-12-11T19:44:14.005Z,68.70
2022-12-11T19:46:42.981Z,67.13
2022-12-11T19:49:12.951Z,65.10
2022-12-11T19:51:42.822Z,68.63
2022-12-11T19:54:15.615Z,63.77
2022-12-11T19:56:44.450Z,62.07
2022-12-11T19:59:15.909Z,58.50
2022-12-11T20:01:46.810Z,59.53
2022-12-11T20:04:18.326Z,55.03
2022-12-11T20:06:47.772Z,56.63
2022-12-11T20:09:18.511Z,58.97
2022-12-11T20:11:48.381Z,59.03
2022-12-11T20:14:23.540Z,59.30
2022-12-11T20:19:41.204Z,56.10
2022-12-11T20:22:10.302Z,57.90
2022-12-11T20:24:40.551Z,59.37
2022-12-11T20:27:12.303Z,64.93
2022-12-11T20:29:40.950Z,57.40
2022-12-11T20:32:11.376Z,58.43
2022-12-11T20:34:40.098Z,56.87
2022-12-11T20:37:08.958Z,59.73
2022-12-11T20:39:37.936Z,53.70
2022-12-11T20:42:10.515Z,54.67
2022-12-11T20:44:42.692Z,58.17
2022-12-11T20:47:14.698Z,53.83
2022-12-11T20:49:43.784Z,53.87
2022-12-11T20:52:12.567Z,53.90
2022-12-11T20:54:41.027Z,50.73
2022-12-11T20:57:10.915Z,50.27
2022-12-11T20:59:40.285Z,55.10
2022-12-11T21:02:10.228Z,59.03
2022-12-11T21:04:41.019Z,57.90
2022-12-11T21:07:10.532Z,55.93
2022-12-11T21:09:39.986Z,60.93
2022-12-11T21:12:11.544Z,53.43
2022-12-11T21:14:40.431Z,50.60
2022-12-11T21:17:08.743Z,51.53
2022-12-11T21:19:38.193Z,51.17
2022-12-11T21:22:06.809Z,48.70
2022-12-11T21:24:36.109Z,52.10
2022-12-11T21:27:05.059Z,51.43
2022-12-11T21:29:35.554Z,52.10
2022-12-11T21:32:04.840Z,52.57
2022-12-11T21:34:35.076Z,51.83
2022-12-11T21:37:05.016Z,53.60
2022-12-11T21:39:38.984Z,53.97
2022-12-11T21:42:10.725Z,52.77
2022-12-11T21:47:31.360Z,53.80
2022-12-11T21:49:59.969Z,50.90
2022-12-11T21:52:28.957Z,49.03
2022-12-11T21:54:57.526Z,50.63
2022-12-11T21:57:26.690Z,50.53
2022-12-11T21:59:56.834Z,52.83
2022-12-11T22:02:25.152Z,52.77
2022-12-11T22:04:53.651Z,53.27
2022-12-11T22:07:23.358Z,49.20
2022-12-11T22:09:51.830Z,53.27
2022-12-11T22:12:25.005Z,51.57
2022-12-11T22:14:53.703Z,56.07
2022-12-11T22:17:25.911Z,55.87
2022-12-11T22:19:54.413Z,58.70
2022-12-11T22:22:23.124Z,63.23
2022-12-11T22:24:51.466Z,62.20
2022-12-11T22:27:23.685Z,59.90
2022-12-11T22:29:52.488Z,56.37
2022-12-11T22:32:20.989Z,59.23
2022-12-11T22:34:50.735Z,56.57
2022-12-11T22:37:18.967Z,57.53
2022-12-11T22:39:47.517Z,59.50
2022-12-11T22:42:15.798Z,58.37
2022-12-11T22:44:44.594Z,58.60
2022-12-11T22:47:13.171Z,63.43
2022-12-11T22:49:41.611Z,60.00
2022-12-11T22:52:11.405Z,57.83
2022-12-11T22:54:39.922Z,60.07
2022-12-11T22:57:08.359Z,59.70
2022-12-11T22:59:37.373Z,59.90
2022-12-11T23:02:05.706Z,59.87
2022-12-11T23:04:34.270Z,60.63
2022-12-11T23:07:02.713Z,57.00
2022-12-11T23:09:32.542Z,52.47
2022-12-11T23:12:02.135Z,55.10
2022-12-11T23:14:30.458Z,52.20
2022-12-11T23:16:58.797Z,52.20
2022-12-11T23:19:27.357Z,50.67
2022-12-11T23:21:55.676Z,52.93
2022-12-11T23:24:24.212Z,51.53
2022-12-11T23:26:54.028Z,47.03
2022-12-11T23:29:22.620Z,52.47
2022-12-11T23:31:51.179Z,51.43
2022-12-11T23:34:19.680Z,50.27
2022-12-11T23:36:47.930Z,50.80
2022-12-11T23:39:16.225Z,55.73
2022-12-11T23:41:45.013Z,57.20
2022-12-11T23:44:14.767Z,61.73
2022-12-11T23:46:44.937Z,64.57
2022-12-11T23:49:13.260Z,70.77
2022-12-11T23:51:43.714Z,70.47
2022-12-11T23:54:12.086Z,73.63
2022-12-11T23:56:40.560Z,73.77
2022-12-11T23:59:08.863Z,89.07
